Time;durP1;ratioP1;P1;durP2;ratioP2;P2;SDS_P1;SDS_P2;PMS_P1;PMS_P2;Temp;Humidity;BMP_temperature;BMP_pressure;BME280_temperature;BME280_humidity;BME280_pressure;Samples;Min_cycle;Max_cycle;Signal;HPM_P1;HPM_P2
2021/06/17 00:02:15;;;;;;;3.40;0.40;;;24.30;99.90;;;;;;5018236;28;20262;-90
2021/06/17 00:04:46;;;;;;;1.37;0.50;;;24.30;99.90;;;;;;5022811;28;20245;-91
2021/06/17 00:07:18;;;;;;;2.10;0.50;;;24.30;99.90;;;;;;5019151;28;20221;-91
2021/06/17 00:09:49;;;;;;;1.20;0.43;;;24.20;99.90;;;;;;5028054;28;20213;-96
2021/06/17 00:12:21;;;;;;;1.90;0.47;;;24.20;99.90;;;;;;5014179;28;20627;-91
2021/06/17 00:14:53;;;;;;;1.20;0.47;;;24.30;99.90;;;;;;4997516;28;20224;-90
2021/06/17 00:17:25;;;;;;;0.97;0.43;;;24.30;99.90;;;;;;4997794;28;20245;-90
2021/06/17 00:19:59;;;;;;;2.17;0.50;;;24.30;99.90;;;;;;4998017;28;20292;-91
2021/06/17 00:22:30;;;;;;;1.50;0.50;;;24.20;99.90;;;;;;4999132;28;20260;-90
2021/06/17 00:25:03;;;;;;;1.90;0.80;;;24.10;99.90;;;;;;5004512;28;20314;-91
2021/06/17 00:27:36;;;;;;;1.63;0.40;;;24.10;99.90;;;;;;5018212;28;20234;-88
2021/06/17 00:30:10;;;;;;;2.30;0.50;;;24.20;99.90;;;;;;5018178;28;20248;-91
2021/06/17 00:32:41;;;;;;;1.77;0.30;;;24.20;99.90;;;;;;5017479;28;20666;-91
2021/06/17 00:35:14;;;;;;;1.37;0.43;;;24.10;99.90;;;;;;5001114;28;20245;-89
2021/06/17 00:37:46;;;;;;;0.97;0.43;;;24.10;99.90;;;;;;4999239;28;20207;-90
2021/06/17 00:40:18;;;;;;;0.60;0.40;;;24.20;99.90;;;;;;5000390;28;20210;-90
2021/06/17 00:42:52;;;;;;;4.00;1.40;;;24.20;99.90;;;;;;4996672;28;20321;-89
2021/06/17 00:45:25;;;;;;;1.30;0.60;;;24.30;99.90;;;;;;4979899;28;20301;-88
2021/06/17 00:47:56;;;;;;;2.10;0.50;;;24.60;99.90;;;;;;4980218;28;20622;-88
2021/06/17 00:50:29;;;;;;;1.70;0.40;;;24.90;99.90;;;;;;4993721;28;20222;-88
2021/06/17 00:53:02;;;;;;;2.13;0.60;;;25.30;99.90;;;;;;4987767;28;20750;-88
2021/06/17 00:55:33;;;;;;;1.50;1.40;;;25.90;99.90;;;;;;4995766;28;20500;-89
2021/06/17 00:58:06;;;;;;;1.63;0.80;;;26.20;99.90;;;;;;5016794;28;20234;-89
2021/06/17 01:00:38;;;;;;;2.20;1.10;;;26.70;99.90;;;;;;5014153;28;20210;-90
2021/06/17 01:03:09;;;;;;;0.70;0.40;;;26.00;99.90;;;;;;4998188;28;20345;-89
2021/06/17 01:05:41;;;;;;;1.90;0.70;;;26.10;99.90;;;;;;4987082;28;20739;-89
2021/06/17 01:08:25;;;;;;;1.07;0.50;;;26.50;99.90;;;;;;4996916;28;20654;-89
2021/06/17 01:11:07;;;;;;;1.80;0.53;;;26.80;99.90;;;;;;4983021;28;20238;-89
2021/06/17 01:13:50;;;;;;;0.87;0.53;;;27.00;99.90;;;;;;4993547;28;20240;-89
2021/06/17 01:16:30;;;;;;;2.20;0.50;;;27.30;99.90;;;;;;5016099;28;20223;-87
2021/06/17 01:19:05;;;;;;;1.83;0.63;;;27.40;99.90;;;;;;5001097;28;20218;-89
2021/06/17 01:21:57;;;;;;;2.73;1.10;;;27.60;99.90;;;;;;4993706;28;20271;-88
2021/06/17 01:24:43;;;;;;;1.47;0.50;;;27.70;99.90;;;;;;4981710;28;20258;-88
2021/06/17 01:27:33;;;;;;;2.87;0.70;;;28.00;99.90;;;;;;4991494;28;20214;-89
2021/06/17 01:30:10;;;;;;;2.67;0.60;;;27.70;99.90;;;;;;4994265;28;20237;-88
2021/06/17 01:32:45;;;;;;;2.87;0.70;;;27.50;99.90;;;;;;4975512;28;20239;-88
2021/06/17 01:35:19;;;;;;;2.90;0.60;;;27.60;99.90;;;;;;4989943;28;20252;-88
2021/06/17 01:37:53;;;;;;;4.43;0.90;;;28.00;99.90;;;;;;5015275;28;20229;-89
2021/06/17 01:40:25;;;;;;;4.30;0.90;;;28.00;99.90;;;;;;5014375;28;20236;-88
2021/06/17 01:43:01;;;;;;;4.00;0.77;;;27.80;99.90;;;;;;5015088;28;20727;-89
2021/06/17 01:45:34;;;;;;;3.77;0.90;;;27.70;99.90;;;;;;4998622;28;20738;-88
2021/06/17 01:48:06;;;;;;;2.17;0.70;;;27.80;99.90;;;;;;4996018;28;20257;-89
2021/06/17 01:50:38;;;;;;;1.87;0.40;;;28.10;99.90;;;;;;4997885;28;20214;-88
2021/06/17 01:53:10;;;;;;;1.77;0.60;;;28.30;99.90;;;;;;4983845;28;20233;-89
2021/06/17 01:55:42;;;;;;;2.17;0.90;;;27.90;99.90;;;;;;5014517;28;20248;-86
2021/06/17 01:58:15;;;;;;;2.83;0.60;;;28.00;99.90;;;;;;5014209;28;20292;-89
2021/06/17 02:00:49;;;;;;;1.07;0.60;;;27.60;99.90;;;;;;5012350;28;20718;-88
2021/06/17 02:03:25;;;;;;;2.97;0.80;;;27.60;99.90;;;;;;4999246;28;20237;-88
2021/06/17 02:05:56;;;;;;;2.07;0.57;;;27.90;99.90;;;;;;4980045;28;20265;-88
2021/06/17 02:08:28;;;;;;;2.17;0.83;;;27.50;99.90;;;;;;4974230;28;20269;-89
2021/06/17 02:10:59;;;;;;;3.87;0.63;;;27.80;99.90;;;;;;4979152;28;20306;-89
2021/06/17 02:13:32;;;;;;;0.90;0.50;;;28.00;99.90;;;;;;4994189;28;20301;-89
2021/06/17 02:16:06;;;;;;;5.60;0.70;;;28.10;99.90;;;;;;4993931;28;20298;-89
2021/06/17 02:18:38;;;;;;;1.47;0.80;;;28.30;99.90;;;;;;4993200;28;20221;-88
2021/06/17 02:21:10;;;;;;;2.67;0.70;;;28.10;99.90;;;;;;4984558;28;20723;-87
2021/06/17 02:23:43;;;;;;;1.20;0.53;;;27.80;99.90;;;;;;4974686;28;20243;-88
2021/06/17 02:26:15;;;;;;;0.47;0.33;;;27.60;99.90;;;;;;4979548;28;20242;-88
2021/06/17 02:28:49;;;;;;;1.00;0.40;;;27.40;99.90;;;;;;4981483;28;20242;-88
2021/06/17 02:31:28;;;;;;;1.40;0.83;;;27.40;99.90;;;;;;4991542;28;20207;-87
2021/06/17 02:33:59;;;;;;;2.00;0.97;;;27.50;99.90;;;;;;4979073;28;20300;-87
2021/06/17 02:36:31;;;;;;;2.00;0.67;;;27.00;99.90;;;;;;4994264;28;20265;-87
2021/06/17 02:39:06;;;;;;;2.67;0.70;;;25.80;99.90;;;;;;4994092;28;20644;-87
2021/06/17 02:41:42;;;;;;;0.93;0.70;;;24.60;99.90;;;;;;4993215;28;20226;-87
2021/06/17 02:44:14;;;;;;;1.23;0.60;;;23.80;99.90;;;;;;4973237;28;20324;-87
2021/06/17 02:46:47;;;;;;;0.97;0.57;;;22.80;99.90;;;;;;4986185;28;20242;-87
2021/06/17 02:49:18;;;;;;;2.40;0.80;;;22.50;99.90;;;;;;4993699;28;20206;-88
2021/06/17 02:51:48;;;;;;;1.70;0.70;;;22.10;99.90;;;;;;4992613;28;20210;-87
2021/06/17 02:54:20;;;;;;;2.87;0.70;;;21.70;99.90;;;;;;4993412;28;20218;-87
2021/06/17 02:57:06;;;;;;;1.13;0.60;;;21.40;99.90;;;;;;4993878;28;20289;-87
2021/06/17 02:59:53;;;;;;;2.40;0.70;;;21.10;99.90;;;;;;4994147;28;20285;-87
2021/06/17 03:02:35;;;;;;;0.90;0.50;;;20.90;99.90;;;;;;5008576;28;20640;-87
2021/06/17 03:05:13;;;;;;;1.43;0.50;;;20.70;99.90;;;;;;4988075;28;20237;-86
2021/06/17 03:07:58;;;;;;;0.77;0.60;;;20.50;99.90;;;;;;4993715;28;20656;-87
2021/06/17 03:10:32;;;;;;;1.57;0.80;;;20.40;99.90;;;;;;4991610;28;20248;-87
2021/06/17 03:13:05;;;;;;;1.03;0.60;;;20.30;99.90;;;;;;4980498;28;20237;-88
2021/06/17 03:15:38;;;;;;;1.60;1.00;;;20.20;99.90;;;;;;4994176;28;20210;-87
2021/06/17 03:18:13;;;;;;;0.83;0.67;;;20.00;99.90;;;;;;4993982;28;20206;-88
2021/06/17 03:20:45;;;;;;;2.03;0.67;;;19.90;99.90;;;;;;4993485;28;20667;-88
2021/06/17 03:23:18;;;;;;;0.87;0.57;;;19.80;99.90;;;;;;4991530;28;20234;-88
2021/06/17 03:25:52;;;;;;;2.67;0.80;;;19.80;99.90;;;;;;4996817;28;20232;-88
2021/06/17 03:28:24;;;;;;;1.97;0.60;;;19.70;99.90;;;;;;5014400;28;20207;-88
2021/06/17 03:30:57;;;;;;;1.70;0.80;;;19.60;99.90;;;;;;5005839;28;20206;-88
2021/06/17 03:33:37;;;;;;;3.10;0.60;;;19.60;99.90;;;;;;4981900;28;20287;-87
2021/06/17 03:36:10;;;;;;;1.33;0.70;;;19.50;99.90;;;;;;4997782;28;20233;-88
2021/06/17 03:38:43;;;;;;;2.53;0.80;;;19.40;99.90;;;;;;4994701;28;20290;-87
2021/06/17 03:41:16;;;;;;;1.53;0.80;;;19.30;99.90;;;;;;5011626;28;20233;-87
2021/06/17 03:43:48;;;;;;;1.67;0.93;;;19.20;99.90;;;;;;5012482;28;20316;-87
2021/06/17 03:46:21;;;;;;;3.13;0.90;;;19.10;99.90;;;;;;5012959;28;20292;-87
2021/06/17 03:48:56;;;;;;;2.63;0.90;;;19.00;99.90;;;;;;4995329;28;20296;-88
2021/06/17 03:51:28;;;;;;;3.27;0.80;;;18.90;99.90;;;;;;4994512;28;20205;-89
2021/06/17 03:54:02;;;;;;;3.87;1.00;;;18.80;99.90;;;;;;4995296;28;20238;-88
2021/06/17 03:56:33;;;;;;;2.73;0.70;;;18.80;99.90;;;;;;4998279;28;20629;-87
2021/06/17 03:59:05;;;;;;;2.67;0.90;;;18.70;99.90;;;;;;4978704;28;20739;-87
2021/06/17 04:01:36;;;;;;;2.27;1.00;;;18.60;99.90;;;;;;4979228;28;20298;-87
2021/06/17 04:04:09;;;;;;;1.73;1.30;;;18.40;99.90;;;;;;4979365;28;20258;-87
2021/06/17 04:07:01;;;;;;;1.00;0.80;;;18.40;99.90;;;;;;4998133;28;20709;-87
2021/06/17 04:09:33;;;;;;;3.47;1.13;;;18.30;99.90;;;;;;5003097;28;20230;-87
2021/06/17 04:12:08;;;;;;;2.83;1.20;;;18.20;99.90;;;;;;5001584;28;20218;-87
2021/06/17 04:14:42;;;;;;;2.77;1.03;;;18.10;99.90;;;;;;5012828;28;20625;-87
2021/06/17 04:17:18;;;;;;;2.10;1.10;;;18.00;99.90;;;;;;5015575;28;20218;-87
2021/06/17 04:19:52;;;;;;;1.10;0.80;;;17.90;99.90;;;;;;5008875;28;20210;-90
2021/06/17 04:22:24;;;;;;;2.00;0.80;;;17.80;99.90;;;;;;4997899;28;20207;-87
2021/06/17 04:25:01;;;;;;;1.70;1.10;;;17.70;99.90;;;;;;4996685;28;20246;-88
2021/06/17 04:27:33;;;;;;;1.53;0.63;;;17.70;99.90;;;;;;4996682;28;20663;-88
2021/06/17 04:30:06;;;;;;;2.60;1.10;;;17.60;99.90;;;;;;4995193;28;20273;-88
2021/06/17 04:32:37;;;;;;;0.60;0.60;;;17.50;99.90;;;;;;5001288;28;20233;-88
2021/06/17 04:35:12;;;;;;;1.63;0.83;;;17.40;99.90;;;;;;4997513;28;20298;-87
2021/06/17 04:37:44;;;;;;;2.27;0.93;;;17.30;99.90;;;;;;4996853;28;20598;-86
2021/06/17 04:40:16;;;;;;;1.43;0.70;;;17.20;99.90;;;;;;4996750;28;20242;-88
2021/06/17 04:42:48;;;;;;;2.03;0.63;;;17.20;99.90;;;;;;5007830;28;20229;-88
2021/06/17 04:45:19;;;;;;;1.73;0.77;;;17.10;99.90;;;;;;4995823;28;20329;-87
2021/06/17 04:47:50;;;;;;;0.73;0.70;;;17.00;99.90;;;;;;4995997;28;20241;-87
2021/06/17 04:50:24;;;;;;;1.47;0.70;;;17.00;99.90;;;;;;5000434;28;20632;-88
2021/06/17 04:53:19;;;;;;;1.70;0.80;;;16.90;99.90;;;;;;4991493;28;20341;-88
2021/06/17 04:55:52;;;;;;;1.50;0.67;;;16.90;99.90;;;;;;4986078;28;20269;-87
2021/06/17 04:58:24;;;;;;;0.93;0.70;;;16.80;99.90;;;;;;4982623;28;20238;-87
2021/06/17 05:01:05;;;;;;;2.43;0.87;;;16.70;99.90;;;;;;4994474;28;20260;-85
2021/06/17 05:03:37;;;;;;;1.13;0.60;;;16.70;99.90;;;;;;4994745;28;20687;-88
2021/06/17 05:06:11;;;;;;;4.63;1.03;;;16.60;99.90;;;;;;4993057;28;20574;-85
2021/06/17 05:11:29;;;;;;;4.83;1.77;;;16.40;99.90;;;;;;4994435;28;20249;-86
2021/06/17 05:14:00;;;;;;;3.37;1.13;;;16.30;99.90;;;;;;4995100;28;20293;-85
2021/06/17 05:16:30;;;;;;;3.67;1.20;;;16.20;99.90;;;;;;4990112;28;20242;-85
2021/06/17 05:19:01;;;;;;;3.87;1.53;;;16.20;99.90;;;;;;4994344;28;20238;-85
2021/06/17 05:21:34;;;;;;;3.40;1.40;;;16.10;99.90;;;;;;4993417;28;20839;-85
2021/06/17 05:24:05;;;;;;;1.03;0.70;;;16.00;99.90;;;;;;4974729;28;20330;-86
2021/06/17 05:26:40;;;;;;;1.73;0.80;;;16.00;99.90;;;;;;4987367;28;20208;-86
2021/06/17 05:29:11;;;;;;;1.07;0.77;;;16.00;99.90;;;;;;4994437;28;20616;-86
2021/06/17 05:31:41;;;;;;;1.77;1.00;;;15.90;99.90;;;;;;4993509;28;20641;-86
2021/06/17 05:34:12;;;;;;;1.53;0.83;;;15.90;99.90;;;;;;4996655;28;20289;-87
2021/06/17 05:36:45;;;;;;;1.27;0.87;;;15.80;99.90;;;;;;5014210;28;20638;-87
2021/06/17 05:39:16;;;;;;;1.37;0.90;;;15.80;99.90;;;;;;5015124;28;20667;-87
2021/06/17 05:41:46;;;;;;;1.00;0.90;;;15.70;99.90;;;;;;5007711;28;20253;-87
2021/06/17 05:44:16;;;;;;;4.30;0.90;;;15.70;99.90;;;;;;4995405;28;20321;-86
2021/06/17 05:46:48;;;;;;;1.80;1.00;;;15.60;99.90;;;;;;4996325;28;20271;-86
2021/06/17 05:49:23;;;;;;;2.30;1.00;;;15.60;99.90;;;;;;5015576;28;20206;-86
2021/06/17 05:51:56;;;;;;;1.50;0.87;;;15.60;99.90;;;;;;5015895;28;20182;-87
2021/06/17 05:54:26;;;;;;;1.93;0.80;;;15.50;99.90;;;;;;5009684;28;20237;-86
2021/06/17 05:57:01;;;;;;;4.27;0.80;;;15.50;99.90;;;;;;4997093;28;20203;-86
2021/06/17 05:59:32;;;;;;;1.07;0.60;;;15.50;99.90;;;;;;4995434;28;20651;-85
2021/06/17 06:02:03;;;;;;;1.63;0.50;;;15.50;99.90;;;;;;4993179;28;20230;-87
2021/06/17 06:04:34;;;;;;;1.60;0.80;;;15.40;99.90;;;;;;4993473;28;20234;-88
2021/06/17 06:07:07;;;;;;;1.00;0.60;;;15.30;99.90;;;;;;4993601;28;20677;-87
2021/06/17 06:09:37;;;;;;;1.37;0.70;;;15.30;99.90;;;;;;4996089;28;20237;-87
2021/06/17 06:12:10;;;;;;;0.77;0.57;;;15.20;99.90;;;;;;5013475;28;20677;-86
2021/06/17 06:14:40;;;;;;;2.10;0.47;;;15.20;99.90;;;;;;5002161;28;20289;-86
2021/06/17 06:17:11;;;;;;;0.60;0.50;;;15.10;99.90;;;;;;4989994;28;20214;-86
2021/06/17 06:19:42;;;;;;;1.63;0.80;;;15.00;99.90;;;;;;4994075;28;20210;-87
2021/06/17 06:22:15;;;;;;;6.27;0.70;;;15.00;99.90;;;;;;4993674;28;20206;-86
2021/06/17 06:24:46;;;;;;;0.97;0.70;;;15.00;99.90;;;;;;4993751;28;20266;-85
2021/06/17 06:27:16;;;;;;;0.70;0.57;;;14.90;99.90;;;;;;4994325;28;20218;-86
2021/06/17 06:29:47;;;;;;;0.77;0.60;;;14.80;99.90;;;;;;4992899;28;20237;-89
2021/06/17 06:32:18;;;;;;;0.70;0.67;;;14.80;99.90;;;;;;4991047;28;20210;-86
2021/06/17 06:34:48;;;;;;;1.67;0.70;;;14.70;99.90;;;;;;4984111;28;20241;-86
2021/06/17 06:37:21;;;;;;;1.60;0.70;;;14.70;99.90;;;;;;4986380;28;20722;-87
2021/06/17 06:39:51;;;;;;;0.90;0.63;;;14.70;99.90;;;;;;4992768;28;20293;-87
2021/06/17 06:42:22;;;;;;;2.40;0.70;;;14.60;99.90;;;;;;5010288;28;20638;-86
2021/06/17 06:44:53;;;;;;;2.37;0.80;;;14.60;99.90;;;;;;5006379;28;20268;-87
2021/06/17 06:47:24;;;;;;;1.20;0.70;;;14.50;99.90;;;;;;5013193;28;20260;-86
2021/06/17 06:49:55;;;;;;;1.37;0.70;;;14.50;99.90;;;;;;5011742;28;20639;-87
2021/06/17 06:52:28;;;;;;;1.07;0.70;;;14.50;99.90;;;;;;5000472;28;20240;-86
2021/06/17 06:54:59;;;;;;;0.70;0.50;;;14.40;99.90;;;;;;5005071;28;20838;-86
2021/06/17 06:57:32;;;;;;;1.50;0.90;;;14.50;99.90;;;;;;5012784;28;20287;-86
2021/06/17 07:00:03;;;;;;;2.17;0.83;;;14.50;99.90;;;;;;5012207;28;20292;-86
2021/06/17 07:02:34;;;;;;;2.30;0.90;;;14.50;99.90;;;;;;5002199;28;20721;-87
2021/06/17 07:05:07;;;;;;;0.80;0.70;;;14.50;99.90;;;;;;4993201;28;20320;-86
2021/06/17 07:07:40;;;;;;;2.47;0.90;;;14.40;99.90;;;;;;4993782;28;20300;-86
2021/06/17 07:10:12;;;;;;;2.43;0.97;;;14.50;99.90;;;;;;4992637;28;20337;-86
2021/06/17 07:12:44;;;;;;;0.90;0.60;;;14.40;99.90;;;;;;5002571;28;20209;-87
2021/06/17 07:15:15;;;;;;;1.30;0.70;;;14.40;99.90;;;;;;4993025;28;20202;-87
2021/06/17 07:17:46;;;;;;;0.87;0.70;;;14.30;99.90;;;;;;4992953;28;20322;-87
2021/06/17 07:20:17;;;;;;;1.47;0.70;;;14.30;99.90;;;;;;4992684;28;20218;-87
2021/06/17 07:22:54;;;;;;;0.63;0.60;;;14.20;99.90;;;;;;5012748;28;20388;-84
2021/06/17 07:25:26;;;;;;;1.07;0.67;;;14.10;99.90;;;;;;5003749;28;20325;-86
2021/06/17 07:27:57;;;;;;;0.83;0.60;;;14.10;99.90;;;;;;4990101;28;20294;-86
2021/06/17 07:30:28;;;;;;;1.60;0.50;;;14.00;99.90;;;;;;4991202;28;20234;-87
2021/06/17 07:32:59;;;;;;;2.37;0.70;;;14.00;99.90;;;;;;4997703;28;20703;-87
2021/06/17 07:35:30;;;;;;;1.90;0.60;;;13.90;99.90;;;;;;4997121;28;20238;-86
2021/06/17 07:38:03;;;;;;;1.87;0.90;;;13.90;99.90;;;;;;4998970;28;20238;-86
2021/06/17 07:40:33;;;;;;;2.30;0.57;;;13.80;99.90;;;;;;5016210;28;20229;-87
2021/06/17 07:43:04;;;;;;;3.43;1.23;;;13.80;99.90;;;;;;5016653;28;20252;-86
2021/06/17 07:45:36;;;;;;;1.13;0.80;;;13.80;99.90;;;;;;5016341;28;20245;-86
2021/06/17 07:48:10;;;;;;;0.93;0.60;;;13.70;99.90;;;;;;5006487;28;20306;-86
2021/06/17 07:50:42;;;;;;;7.87;1.13;;;13.70;99.90;;;;;;4996186;28;20224;-87
2021/06/17 07:53:15;;;;;;;0.90;0.63;;;13.60;99.90;;;;;;4996918;28;20675;-88
2021/06/17 07:55:47;;;;;;;2.23;0.70;;;13.60;99.90;;;;;;4997212;28;20293;-87
2021/06/17 07:58:17;;;;;;;1.17;0.70;;;13.60;99.90;;;;;;4995963;28;20230;-87
2021/06/17 08:00:48;;;;;;;0.80;0.60;;;13.60;99.90;;;;;;5004670;28;20201;-87
2021/06/17 08:03:19;;;;;;;1.23;0.80;;;13.60;99.90;;;;;;5018082;28;20586;-87
2021/06/17 08:05:50;;;;;;;2.40;0.60;;;13.60;99.90;;;;;;5004142;28;20321;-88
2021/06/17 08:08:24;;;;;;;1.20;0.67;;;13.50;99.90;;;;;;4987906;28;20301;-88
2021/06/17 08:10:55;;;;;;;1.13;0.83;;;13.50;99.90;;;;;;4993349;28;20239;-87
2021/06/17 08:13:26;;;;;;;2.00;1.00;;;13.50;99.90;;;;;;5005915;28;20211;-88
2021/06/17 08:15:57;;;;;;;1.33;0.70;;;13.50;99.90;;;;;;5017993;28;20199;-87
2021/06/17 08:18:28;;;;;;;1.47;0.60;;;13.50;99.90;;;;;;5004214;28;20202;-87
2021/06/17 08:21:01;;;;;;;1.93;0.70;;;13.40;99.90;;;;;;4995863;28;20222;-87
2021/06/17 08:23:34;;;;;;;1.70;0.50;;;13.40;99.90;;;;;;4996301;28;20226;-86
2021/06/17 08:26:05;;;;;;;1.27;0.57;;;13.30;99.90;;;;;;4995968;28;20238;-87
2021/06/17 08:28:36;;;;;;;2.23;1.00;;;13.30;99.90;;;;;;4996578;28;20725;-86
2021/06/17 08:31:08;;;;;;;1.50;0.80;;;13.30;99.90;;;;;;5012645;28;20237;-87
2021/06/17 08:33:39;;;;;;;2.80;0.70;;;13.20;99.90;;;;;;4995986;28;20729;-87
2021/06/17 08:36:10;;;;;;;0.90;0.60;;;13.20;99.90;;;;;;4996199;28;20210;-87
2021/06/17 08:38:43;;;;;;;2.20;0.80;;;13.20;99.90;;;;;;4997975;28;20256;-86
2021/06/17 08:41:14;;;;;;;1.63;0.70;;;13.10;99.90;;;;;;5002989;28;20310;-86
2021/06/17 08:43:52;;;;;;;1.13;0.83;;;13.10;99.90;;;;;;4995623;28;20202;-85
2021/06/17 08:46:23;;;;;;;1.50;0.80;;;13.00;99.90;;;;;;4995274;28;20242;-87
2021/06/17 08:48:53;;;;;;;0.97;0.73;;;12.90;99.90;;;;;;4995663;28;20636;-87
2021/06/17 08:51:24;;;;;;;1.30;0.67;;;12.90;99.90;;;;;;4994680;28;20246;-87
2021/06/17 08:53:56;;;;;;;1.00;0.77;;;12.90;99.90;;;;;;4996171;28;20206;-87
2021/06/17 08:56:27;;;;;;;1.40;0.83;;;12.80;99.90;;;;;;4996329;28;20269;-87
2021/06/17 08:58:58;;;;;;;1.57;0.80;;;12.90;99.90;;;;;;4995859;28;20244;-87
2021/06/17 09:01:29;;;;;;;2.23;1.00;;;12.80;99.90;;;;;;4994020;28;20309;-87
2021/06/17 09:04:00;;;;;;;0.60;0.57;;;12.80;99.90;;;;;;4996084;28;20636;-87
2021/06/17 09:06:32;;;;;;;1.73;0.90;;;12.80;99.90;;;;;;4996010;28;20268;-87
2021/06/17 09:09:06;;;;;;;1.17;0.77;;;12.80;99.90;;;;;;4995831;28;20616;-87
2021/06/17 09:11:37;;;;;;;1.33;0.87;;;12.70;99.90;;;;;;4995075;28;20215;-87
2021/06/17 09:14:18;;;;;;;2.37;1.00;;;12.70;99.90;;;;;;4995973;28;20214;-87
2021/06/17 09:17:00;;;;;;;0.73;0.70;;;12.60;99.90;;;;;;4996292;28;20211;-87
2021/06/17 09:19:43;;;;;;;1.10;0.63;;;12.60;99.90;;;;;;4996223;28;20300;-88
2021/06/17 09:22:16;;;;;;;1.47;0.90;;;12.60;99.90;;;;;;4997776;28;20210;-88
2021/06/17 09:24:50;;;;;;;1.40;0.83;;;12.60;99.90;;;;;;4998488;28;20290;-87
2021/06/17 09:27:29;;;;;;;2.73;0.90;;;12.50;99.90;;;;;;4996379;28;20241;-87
2021/06/17 09:30:17;;;;;;;1.10;1.00;;;12.50;99.90;;;;;;4996908;28;20248;-87
2021/06/17 09:32:58;;;;;;;1.47;0.80;;;12.50;99.90;;;;;;4998095;28;20211;-87
2021/06/17 09:35:32;;;;;;;1.43;0.80;;;12.50;99.90;;;;;;4992899;28;20309;-86
2021/06/17 09:38:05;;;;;;;1.50;1.00;;;12.40;99.90;;;;;;4999018;28;20663;-87
2021/06/17 09:40:45;;;;;;;1.83;0.97;;;12.40;99.90;;;;;;5012769;28;20223;-87
2021/06/17 09:43:19;;;;;;;1.20;0.87;;;12.40;99.90;;;;;;5016177;28;20218;-85
2021/06/17 09:45:57;;;;;;;2.00;0.83;;;12.40;99.90;;;;;;5014764;28;20206;-87
2021/06/17 09:48:36;;;;;;;0.97;0.80;;;12.30;99.90;;;;;;4996694;28;20217;-87
2021/06/17 09:51:30;;;;;;;1.93;1.03;;;12.30;99.90;;;;;;4995326;28;20209;-87
2021/06/17 09:54:16;;;;;;;1.47;0.90;;;12.20;99.90;;;;;;4995717;28;20631;-87
2021/06/17 09:56:55;;;;;;;2.47;1.03;;;12.20;99.90;;;;;;4975283;28;20297;-87
2021/06/17 09:59:39;;;;;;;2.50;0.97;;;12.20;99.90;;;;;;4974971;28;20643;-87
2021/06/17 10:02:12;;;;;;;0.90;0.70;;;12.20;99.90;;;;;;4994255;28;20214;-87
2021/06/17 10:04:43;;;;;;;2.50;1.00;;;12.10;99.90;;;;;;4994550;28;20656;-87
2021/06/17 10:07:14;;;;;;;2.80;0.90;;;12.20;99.90;;;;;;4994295;28;20264;-87
2021/06/17 10:09:45;;;;;;;2.27;0.80;;;12.10;99.90;;;;;;5005959;28;20293;-87
2021/06/17 10:12:20;;;;;;;1.57;0.90;;;12.10;99.90;;;;;;5017200;28;20205;-87
2021/06/17 10:14:51;;;;;;;1.77;0.97;;;12.10;99.90;;;;;;5015207;28;20201;-87
2021/06/17 10:17:22;;;;;;;1.93;1.07;;;12.10;99.90;;;;;;5012940;28;20221;-87
2021/06/17 10:19:55;;;;;;;1.13;0.93;;;12.10;99.90;;;;;;5015177;28;20288;-87
2021/06/17 10:22:28;;;;;;;2.30;1.00;;;12.10;99.90;;;;;;5014066;28;20209;-88
2021/06/17 10:24:59;;;;;;;2.27;0.80;;;12.10;99.90;;;;;;5013959;28;20252;-87
2021/06/17 10:27:37;;;;;;;4.70;0.90;;;12.00;99.90;;;;;;4995628;28;20264;-87
2021/06/17 10:30:10;;;;;;;0.90;0.90;;;12.10;99.90;;;;;;4993909;28;20221;-87
2021/06/17 10:32:42;;;;;;;0.77;0.70;;;12.10;99.90;;;;;;5009948;28;20201;-87
2021/06/17 10:35:26;;;;;;;1.87;1.30;;;12.10;99.90;;;;;;5017446;28;20194;-87
2021/06/17 10:38:01;;;;;;;1.73;0.90;;;12.10;99.90;;;;;;4994309;28;20203;-86
2021/06/17 10:40:35;;;;;;;2.83;0.90;;;12.10;99.90;;;;;;4975095;28;20217;-86
2021/06/17 10:43:21;;;;;;;0.93;0.70;;;12.00;99.90;;;;;;4975365;28;20211;-86
2021/06/17 10:45:51;;;;;;;1.90;0.90;;;12.00;99.90;;;;;;4992149;28;20774;-86
2021/06/17 10:48:42;;;;;;;1.33;0.63;;;12.00;99.90;;;;;;4994299;28;20244;-86
2021/06/17 10:51:12;;;;;;;0.87;0.67;;;12.00;99.90;;;;;;4993137;28;20221;-86
2021/06/17 10:53:54;;;;;;;1.63;0.77;;;12.00;99.90;;;;;;5003315;28;20296;-87
2021/06/17 10:56:42;;;;;;;1.80;0.77;;;12.00;99.90;;;;;;4999120;28;20295;-87
2021/06/17 10:59:32;;;;;;;1.57;0.90;;;11.90;99.90;;;;;;4994376;28;20253;-87
2021/06/17 11:02:10;;;;;;;0.73;0.67;;;11.90;99.90;;;;;;4993235;28;20266;-86
2021/06/17 11:04:44;;;;;;;2.90;1.00;;;11.90;99.90;;;;;;4996068;28;20229;-86
2021/06/17 11:07:18;;;;;;;2.97;0.80;;;11.80;99.90;;;;;;4998380;28;20237;-87
2021/06/17 11:10:13;;;;;;;1.87;0.80;;;11.80;99.90;;;;;;4997097;28;20217;-87
2021/06/17 11:12:46;;;;;;;1.10;1.00;;;11.80;99.90;;;;;;4978801;28;20211;-86
2021/06/17 11:15:37;;;;;;;1.30;0.90;;;11.80;99.90;;;;;;4978874;28;20730;-87
2021/06/17 11:18:09;;;;;;;1.17;0.80;;;11.80;99.90;;;;;;4978619;28;20226;-86
2021/06/17 11:20:41;;;;;;;1.07;0.77;;;11.70;99.90;;;;;;5001699;28;20226;-86
2021/06/17 11:23:12;;;;;;;2.03;0.90;;;11.70;99.90;;;;;;5017291;28;20252;-86
2021/06/17 11:25:48;;;;;;;2.23;1.00;;;11.70;99.90;;;;;;5016731;28;20240;-86
2021/06/17 11:28:24;;;;;;;0.80;0.80;;;11.70;99.90;;;;;;5016545;28;20659;-86
2021/06/17 11:31:07;;;;;;;1.20;0.90;;;11.70;99.90;;;;;;5016420;28;20279;-86
2021/06/17 11:33:50;;;;;;;0.90;0.80;;;11.60;99.90;;;;;;5017130;28;20688;-86
2021/06/17 11:36:22;;;;;;;2.03;0.80;;;11.60;99.90;;;;;;5017106;28;20313;-86
2021/06/17 11:38:54;;;;;;;2.87;0.80;;;11.60;99.90;;;;;;4999684;28;20253;-86
2021/06/17 11:41:45;;;;;;;2.03;0.90;;;11.50;99.90;;;;;;4996040;28;20216;-86
2021/06/17 11:44:18;;;;;;;2.47;0.90;;;11.50;99.90;;;;;;4996988;28;20297;-86
2021/06/17 11:46:51;;;;;;;3.07;1.07;;;11.50;99.90;;;;;;4996537;28;20245;-86
2021/06/17 11:49:33;;;;;;;0.90;0.80;;;11.40;99.90;;;;;;4996747;28;20686;-87
2021/06/17 11:52:10;;;;;;;4.80;1.20;;;11.40;99.90;;;;;;4996695;28;20300;-87
2021/06/17 11:54:41;;;;;;;1.30;0.60;;;11.40;99.90;;;;;;5001654;28;20237;-87
2021/06/17 11:57:12;;;;;;;2.10;0.90;;;11.40;99.90;;;;;;5015756;28;20206;-87
2021/06/17 11:59:48;;;;;;;1.53;1.20;;;11.40;99.90;;;;;;5017238;28;20333;-89
2021/06/17 12:02:24;;;;;;;3.10;1.00;;;11.30;99.90;;;;;;5017323;28;20209;-86
2021/06/17 12:04:59;;;;;;;1.97;1.00;;;11.40;99.90;;;;;;5003951;28;20302;-86
2021/06/17 12:07:31;;;;;;;1.43;0.97;;;11.30;99.90;;;;;;4997405;28;20286;-87
2021/06/17 12:10:12;;;;;;;1.50;0.80;;;11.30;99.90;;;;;;4996432;28;20248;-87
2021/06/17 12:12:50;;;;;;;1.43;0.83;;;11.20;99.90;;;;;;4997434;28;20210;-87
2021/06/17 12:15:23;;;;;;;1.97;1.00;;;11.30;99.90;;;;;;4996263;28;20655;-87
2021/06/17 12:17:57;;;;;;;1.77;1.20;;;11.20;99.90;;;;;;4996966;28;20220;-87
2021/06/17 12:20:31;;;;;;;0.93;0.73;;;11.20;99.90;;;;;;4995925;28;20293;-87
2021/06/17 12:23:11;;;;;;;1.87;1.00;;;11.20;99.90;;;;;;4996589;28;20758;-87
2021/06/17 12:25:44;;;;;;;3.23;1.10;;;11.10;99.90;;;;;;4996449;28;20241;-87
2021/06/17 12:28:16;;;;;;;1.87;1.00;;;11.20;99.90;;;;;;4996318;28;20265;-86
2021/06/17 12:30:48;;;;;;;2.57;1.10;;;11.20;99.90;;;;;;5001280;28;20210;-87
2021/06/17 12:33:26;;;;;;;1.73;1.00;;;11.10;99.90;;;;;;4995421;28;20716;-86
2021/06/17 12:35:58;;;;;;;1.33;0.80;;;11.20;99.90;;;;;;4996512;28;20276;-87
2021/06/17 12:38:32;;;;;;;2.53;1.10;;;11.20;99.90;;;;;;4996208;28;20582;-87
2021/06/17 12:41:13;;;;;;;5.07;1.20;;;11.20;99.90;;;;;;4993086;28;20211;-87
2021/06/17 12:43:45;;;;;;;1.30;0.97;;;11.20;99.90;;;;;;4977034;28;20297;-86
2021/06/17 12:46:17;;;;;;;1.20;0.90;;;11.20;99.90;;;;;;4977776;28;20612;-87
2021/06/17 12:52:03;;;;;;;1.20;1.10;;;11.10;99.90;;;;;;5015987;28;20210;-88
2021/06/17 12:54:38;;;;;;;2.80;1.23;;;11.20;99.90;;;;;;5037732;28;20210;-88
2021/06/17 12:57:14;;;;;;;1.30;1.00;;;11.20;99.90;;;;;;5032070;28;20211;-89
2021/06/17 12:59:53;;;;;;;3.17;1.20;;;11.20;99.90;;;;;;5009290;28;20736;-90
2021/06/17 13:02:46;;;;;;;3.80;1.30;;;11.30;99.90;;;;;;4997616;28;20297;-88
2021/06/17 13:05:20;;;;;;;1.53;1.00;;;11.30;99.90;;;;;;4976964;28;20273;-88
2021/06/17 13:08:02;;;;;;;1.63;1.47;;;11.40;99.90;;;;;;4976835;28;20422;-87
2021/06/17 13:10:41;;;;;;;1.83;1.10;;;11.40;99.90;;;;;;4975300;28;20684;-86
2021/06/17 13:13:17;;;;;;;2.30;1.03;;;11.40;99.90;;;;;;4976275;28;20302;-87
2021/06/17 13:15:48;;;;;;;0.97;0.90;;;11.40;99.90;;;;;;4988789;28;20292;-87
2021/06/17 13:18:20;;;;;;;1.50;1.17;;;11.40;99.90;;;;;;4995443;28;20205;-87
2021/06/17 13:20:54;;;;;;;1.30;1.00;;;11.40;99.90;;;;;;4994688;28;20662;-86
2021/06/17 13:23:32;;;;;;;1.77;1.20;;;11.50;99.90;;;;;;4995577;28;20329;-86
2021/06/17 13:26:05;;;;;;;2.47;1.30;;;11.50;99.90;;;;;;5001497;28;20296;-86
2021/06/17 13:28:41;;;;;;;1.20;0.90;;;11.50;99.90;;;;;;5013861;28;20252;-86
2021/06/17 13:31:25;;;;;;;2.33;1.20;;;11.50;99.90;;;;;;5013705;28;20241;-86